Chanhassen, Minnesota
Current Conditions -  °F | °C
As of 12:53 PM on Thursday 30 Oct 2014 (Local Time) from KFCM Reporting Station
Overcast Overcast  
Wind Chill: 44°   Ceiling: 4200
Heat Index: 47°   Visibility: 9mi
Dew Point: 37°   Wind: 6mph
Humidity: 68%   Direction: 360°N
Pressure: 30.09"   Gusts: NA
Location:  44.86°N, 93.54°W
Report Text: KFCM 301753Z 36005KT 9SM OVC042 08/03 A3009 RMK AO2 SLP197 60000 T00830028 10083 20044 51012
Loading
Personal Weather Stations






























Interactive Weather Map
Tropical Storm Tracking
New forecast layout! Learn more

10-Day Weather Forecast

Advertisements
Track Severe Weather on mobile